sensor_id;sensor_type;location;lat;lon;timestamp;temperature;humidity
55269;DHT22;41131;42.990;21.954;2024-01-10T00:02:06;51.60;2227.20
55269;DHT22;41131;42.990;21.954;2024-01-10T00:04:32;51.60;2227.20
55269;DHT22;41131;42.990;21.954;2024-01-10T00:06:57;51.80;2227.20
55269;DHT22;41131;42.990;21.954;2024-01-10T00:48:22;51.70;2201.60
55269;DHT22;41131;42.990;21.954;2024-01-10T00:50:48;51.50;2227.20
55269;DHT22;41131;42.990;21.954;2024-01-10T00:53:13;51.30;2227.20
55269;DHT22;41131;42.990;21.954;2024-01-10T00:55:39;51.30;2227.20
55269;DHT22;41131;42.990;21.954;2024-01-10T00:58:05;26.50;2201.60
55269;DHT22;41131;42.990;21.954;2024-01-10T01:00:32;26.30;2201.60
55269;DHT22;41131;42.990;21.954;2024-01-10T01:02:57;26.40;2201.60
55269;DHT22;41131;42.990;21.954;2024-01-10T01:05:23;51.20;2227.20
55269;DHT22;41131;42.990;21.954;2024-01-10T01:07:49;51.20;2227.20
55269;DHT22;41131;42.990;21.954;2024-01-10T01:10:14;26.50;2201.60
55269;DHT22;41131;42.990;21.954;2024-01-10T01:12:40;51.20;2227.20
55269;DHT22;41131;42.990;21.954;2024-01-10T01:15:06;51.20;2227.20
55269;DHT22;41131;42.990;21.954;2024-01-10T01:17:33;26.40;2201.60
55269;DHT22;41131;42.990;21.954;2024-01-10T01:20:00;26.40;2201.60
55269;DHT22;41131;42.990;21.954;2024-01-10T01:22:26;26.40;2201.60
55269;DHT22;41131;42.990;21.954;2024-01-10T01:24:52;26.30;2201.60
55269;DHT22;41131;42.990;21.954;2024-01-10T01:27:18;26.40;2201.60
55269;DHT22;41131;42.990;21.954;2024-01-10T01:29:43;26.50;2201.60
55269;DHT22;41131;42.990;21.954;2024-01-10T01:32:09;51.20;2227.20
55269;DHT22;41131;42.990;21.954;2024-01-10T01:34:35;51.30;2227.20
55269;DHT22;41131;42.990;21.954;2024-01-10T01:37:00;51.40;2227.20
55269;DHT22;41131;42.990;21.954;2024-01-10T01:39:26;51.40;2227.20
55269;DHT22;41131;42.990;21.954;2024-01-10T01:41:53;51.40;2227.20
55269;DHT22;41131;42.990;21.954;2024-01-10T01:44:18;51.40;2227.20
55269;DHT22;41131;42.990;21.954;2024-01-10T01:46:45;51.50;2227.20
55269;DHT22;41131;42.990;21.954;2024-01-10T01:49:12;51.40;2227.20
55269;DHT22;41131;42.990;21.954;2024-01-10T01:51:39;51.40;2227.20
55269;DHT22;41131;42.990;21.954;2024-01-10T01:54:07;51.30;2227.20
55269;DHT22;41131;42.990;21.954;2024-01-10T01:56:37;51.40;2227.20
55269;DHT22;41131;42.990;21.954;2024-01-10T01:59:07;51.50;2227.20
55269;DHT22;41131;42.990;21.954;2024-01-10T02:01:34;51.50;2227.20
55269;DHT22;41131;42.990;21.954;2024-01-10T02:04:03;51.50;2227.20
55269;DHT22;41131;42.990;21.954;2024-01-10T02:06:31;51.60;2227.20
55269;DHT22;41131;42.990;21.954;2024-01-10T02:08:57;51.70;2227.20
55269;DHT22;41131;42.990;21.954;2024-01-10T02:11:25;51.70;2227.20
55269;DHT22;41131;42.990;21.954;2024-01-10T02:13:52;51.80;2227.20
55269;DHT22;41131;42.990;21.954;2024-01-10T02:16:20;51.80;2227.20
55269;DHT22;41131;42.990;21.954;2024-01-10T02:18:46;51.70;2227.20
55269;DHT22;41131;42.990;21.954;2024-01-10T02:21:12;51.70;2227.20
55269;DHT22;41131;42.990;21.954;2024-01-10T02:23:38;51.70;2227.20
55269;DHT22;41131;42.990;21.954;2024-01-10T02:26:03;51.70;2227.20
55269;DHT22;41131;42.990;21.954;2024-01-10T02:28:29;51.80;2227.20
55269;DHT22;41131;42.990;21.954;2024-01-10T02:30:56;51.80;2227.20
55269;DHT22;41131;42.990;21.954;2024-01-10T02:33:22;51.80;2227.20
55269;DHT22;41131;42.990;21.954;2024-01-10T02:35:48;51.70;2227.20
55269;DHT22;41131;42.990;21.954;2024-01-10T02:38:14;51.70;2227.20
55269;DHT22;41131;42.990;21.954;2024-01-10T02:40:39;51.70;2227.20
55269;DHT22;41131;42.990;21.954;2024-01-10T02:43:05;51.70;2227.20
55269;DHT22;41131;42.990;21.954;2024-01-10T02:45:33;51.80;2227.20
55269;DHT22;41131;42.990;21.954;2024-01-10T02:47:59;51.90;2227.20
55269;DHT22;41131;42.990;21.954;2024-01-10T03:09:54;52.10;2227.20
55269;DHT22;41131;42.990;21.954;2024-01-10T03:12:20;51.80;2227.20
55269;DHT22;41131;42.990;21.954;2024-01-10T03:14:46;51.80;2227.20
55269;DHT22;41131;42.990;21.954;2024-01-10T03:17:12;51.80;2227.20
55269;DHT22;41131;42.990;21.954;2024-01-10T03:19:37;51.90;2227.20
55269;DHT22;41131;42.990;21.954;2024-01-10T03:22:08;51.90;2227.20
55269;DHT22;41131;42.990;21.954;2024-01-10T03:24:33;51.90;2227.20
55269;DHT22;41131;42.990;21.954;2024-01-10T03:26:59;51.90;2227.20
55269;DHT22;41131;42.990;21.954;2024-01-10T03:29:25;51.90;2227.20
55269;DHT22;41131;42.990;21.954;2024-01-10T03:31:51;52.10;2227.20
55269;DHT22;41131;42.990;21.954;2024-01-10T03:34:16;52.00;2227.20
55269;DHT22;41131;42.990;21.954;2024-01-10T03:36:43;52.00;2227.20
55269;DHT22;41131;42.990;21.954;2024-01-10T03:39:09;52.00;2227.20
55269;DHT22;41131;42.990;21.954;2024-01-10T03:41:36;51.90;2227.20
55269;DHT22;41131;42.990;21.954;2024-01-10T03:44:01;51.90;2227.20
55269;DHT22;41131;42.990;21.954;2024-01-10T03:46:27;51.80;2227.20
55269;DHT22;41131;42.990;21.954;2024-01-10T03:48:53;51.70;2227.20
55269;DHT22;41131;42.990;21.954;2024-01-10T03:51:19;51.70;2227.20
55269;DHT22;41131;42.990;21.954;2024-01-10T03:53:45;51.70;2227.20
55269;DHT22;41131;42.990;21.954;2024-01-10T03:56:12;51.60;2227.20
55269;DHT22;41131;42.990;21.954;2024-01-10T03:58:37;51.60;2227.20
55269;DHT22;41131;42.990;21.954;2024-01-10T04:01:07;51.60;2227.20
55269;DHT22;41131;42.990;21.954;2024-01-10T04:03:34;51.60;2227.20
55269;DHT22;41131;42.990;21.954;2024-01-10T04:06:01;51.40;2227.20
55269;DHT22;41131;42.990;21.954;2024-01-10T04:08:27;51.40;2227.20
55269;DHT22;41131;42.990;21.954;2024-01-10T04:10:53;51.40;2227.20
55269;DHT22;41131;42.990;21.954;2024-01-10T04:13:18;51.40;2227.20
55269;DHT22;41131;42.990;21.954;2024-01-10T04:15:44;51.50;2227.20
55269;DHT22;41131;42.990;21.954;2024-01-10T04:18:10;51.40;2227.20
55269;DHT22;41131;42.990;21.954;2024-01-10T04:20:35;51.30;2227.20
55269;DHT22;41131;42.990;21.954;2024-01-10T04:23:02;51.30;2227.20
55269;DHT22;41131;42.990;21.954;2024-01-10T04:25:28;51.40;2227.20
55269;DHT22;41131;42.990;21.954;2024-01-10T04:27:54;51.30;2227.20
55269;DHT22;41131;42.990;21.954;2024-01-10T04:30:21;51.30;2227.20
55269;DHT22;41131;42.990;21.954;2024-01-10T04:32:46;51.40;2227.20
55269;DHT22;41131;42.990;21.954;2024-01-10T04:35:12;51.50;2227.20
55269;DHT22;41131;42.990;21.954;2024-01-10T04:37:38;51.40;2227.20
55269;DHT22;41131;42.990;21.954;2024-01-10T04:40:04;51.50;2227.20
55269;DHT22;41131;42.990;21.954;2024-01-10T04:42:31;51.40;2227.20
55269;DHT22;41131;42.990;21.954;2024-01-10T04:44:57;51.40;2227.20
55269;DHT22;41131;42.990;21.954;2024-01-10T04:47:22;51.40;2227.20
55269;DHT22;41131;42.990;21.954;2024-01-10T04:49:48;51.30;2227.20
55269;DHT22;41131;42.990;21.954;2024-01-10T04:52:14;51.30;2227.20
55269;DHT22;41131;42.990;21.954;2024-01-10T04:54:39;51.30;2227.20
55269;DHT22;41131;42.990;21.954;2024-01-10T04:57:05;51.30;2227.20
55269;DHT22;41131;42.990;21.954;2024-01-10T04:59:31;51.30;2227.20
55269;DHT22;41131;42.990;21.954;2024-01-10T05:01:57;51.30;2227.20
55269;DHT22;41131;42.990;21.954;2024-01-10T05:04:23;51.20;2227.20
55269;DHT22;41131;42.990;21.954;2024-01-10T05:06:49;51.20;2227.20
55269;DHT22;41131;42.990;21.954;2024-01-10T05:09:14;51.20;2227.20
55269;DHT22;41131;42.990;21.954;2024-01-10T05:11:40;51.30;2227.20
55269;DHT22;41131;42.990;21.954;2024-01-10T05:14:06;51.20;2227.20
55269;DHT22;41131;42.990;21.954;2024-01-10T05:16:32;51.20;2227.20
55269;DHT22;41131;42.990;21.954;2024-01-10T05:19:00;51.20;2227.20
55269;DHT22;41131;42.990;21.954;2024-01-10T05:21:29;51.20;2227.20
55269;DHT22;41131;42.990;21.954;2024-01-10T05:23:55;51.20;2227.20
55269;DHT22;41131;42.990;21.954;2024-01-10T05:26:21;26.50;2201.60
55269;DHT22;41131;42.990;21.954;2024-01-10T05:28:47;26.50;2201.60
55269;DHT22;41131;42.990;21.954;2024-01-10T05:31:12;26.50;2201.60
55269;DHT22;41131;42.990;21.954;2024-01-10T05:33:38;26.50;2201.60
55269;DHT22;41131;42.990;21.954;2024-01-10T05:36:04;26.50;2201.60
55269;DHT22;41131;42.990;21.954;2024-01-10T05:38:30;26.30;2201.60
55269;DHT22;41131;42.990;21.954;2024-01-10T05:40:56;26.30;2201.60
55269;DHT22;41131;42.990;21.954;2024-01-10T05:43:21;26.30;2201.60
55269;DHT22;41131;42.990;21.954;2024-01-10T05:45:47;26.40;2201.60
55269;DHT22;41131;42.990;21.954;2024-01-10T05:48:13;26.30;2201.60
55269;DHT22;41131;42.990;21.954;2024-01-10T05:50:39;26.30;2201.60
55269;DHT22;41131;42.990;21.954;2024-01-10T05:53:04;26.30;2201.60
55269;DHT22;41131;42.990;21.954;2024-01-10T05:55:30;26.30;2201.60
55269;DHT22;41131;42.990;21.954;2024-01-10T05:57:56;26.30;2201.60
55269;DHT22;41131;42.990;21.954;2024-01-10T06:00:22;26.30;2201.60
55269;DHT22;41131;42.990;21.954;2024-01-10T06:02:47;26.20;2201.60
55269;DHT22;41131;42.990;21.954;2024-01-10T06:05:13;26.20;2201.60
55269;DHT22;41131;42.990;21.954;2024-01-10T06:07:39;26.20;2201.60
55269;DHT22;41131;42.990;21.954;2024-01-10T06:10:08;26.20;2201.60
55269;DHT22;41131;42.990;21.954;2024-01-10T06:12:35;26.20;2201.60
55269;DHT22;41131;42.990;21.954;2024-01-10T06:15:01;26.20;2201.60
55269;DHT22;41131;42.990;21.954;2024-01-10T06:17:27;26.20;2201.60
55269;DHT22;41131;42.990;21.954;2024-01-10T06:19:53;26.20;2201.60
55269;DHT22;41131;42.990;21.954;2024-01-10T06:22:18;26.10;2201.60
55269;DHT22;41131;42.990;21.954;2024-01-10T06:24:50;26.10;2201.60
55269;DHT22;41131;42.990;21.954;2024-01-10T06:27:16;26.00;2201.60
55269;DHT22;41131;42.990;21.954;2024-01-10T06:29:44;26.10;2201.60
55269;DHT22;41131;42.990;21.954;2024-01-10T06:32:11;26.10;2201.60
55269;DHT22;41131;42.990;21.954;2024-01-10T06:34:36;26.00;2201.60
55269;DHT22;41131;42.990;21.954;2024-01-10T06:37:02;26.10;2201.60
55269;DHT22;41131;42.990;21.954;2024-01-10T06:39:28;26.00;2201.60
55269;DHT22;41131;42.990;21.954;2024-01-10T06:41:54;26.10;2201.60
55269;DHT22;41131;42.990;21.954;2024-01-10T06:44:20;26.00;2201.60
55269;DHT22;41131;42.990;21.954;2024-01-10T06:46:46;26.00;2201.60
55269;DHT22;41131;42.990;21.954;2024-01-10T06:49:12;26.00;2201.60
55269;DHT22;41131;42.990;21.954;2024-01-10T06:51:38;26.00;2201.60
55269;DHT22;41131;42.990;21.954;2024-01-10T06:54:04;25.90;2201.60
55269;DHT22;41131;42.990;21.954;2024-01-10T06:56:32;25.90;2201.60
55269;DHT22;41131;42.990;21.954;2024-01-10T06:58:59;26.00;2201.60
55269;DHT22;41131;42.990;21.954;2024-01-10T07:01:26;26.00;2201.60
55269;DHT22;41131;42.990;21.954;2024-01-10T07:03:52;26.00;2201.60
55269;DHT22;41131;42.990;21.954;2024-01-10T07:06:20;25.90;2201.60
55269;DHT22;41131;42.990;21.954;2024-01-10T07:08:48;26.00;2201.60
55269;DHT22;41131;42.990;21.954;2024-01-10T07:11:15;26.00;2201.60
55269;DHT22;41131;42.990;21.954;2024-01-10T07:13:41;26.00;2201.60
55269;DHT22;41131;42.990;21.954;2024-01-10T07:16:08;26.00;2201.60
55269;DHT22;41131;42.990;21.954;2024-01-10T07:18:34;26.00;2201.60
55269;DHT22;41131;42.990;21.954;2024-01-10T07:20:59;25.90;2201.60
55269;DHT22;41131;42.990;21.954;2024-01-10T07:23:25;25.90;2201.60
55269;DHT22;41131;42.990;21.954;2024-01-10T07:25:52;26.00;2201.60
55269;DHT22;41131;42.990;21.954;2024-01-10T07:28:18;26.10;2201.60
55269;DHT22;41131;42.990;21.954;2024-01-10T07:30:45;26.00;2201.60
55269;DHT22;41131;42.990;21.954;2024-01-10T07:33:11;26.00;2201.60
55269;DHT22;41131;42.990;21.954;2024-01-10T07:35:37;26.00;2201.60
55269;DHT22;41131;42.990;21.954;2024-01-10T07:38:04;26.00;2201.60
55269;DHT22;41131;42.990;21.954;2024-01-10T07:40:34;26.10;2201.60
55269;DHT22;41131;42.990;21.954;2024-01-10T07:43:00;26.10;2201.60
55269;DHT22;41131;42.990;21.954;2024-01-10T07:45:26;26.20;2201.60
55269;DHT22;41131;42.990;21.954;2024-01-10T07:47:52;26.20;2201.60
55269;DHT22;41131;42.990;21.954;2024-01-10T07:50:18;26.20;2201.60
55269;DHT22;41131;42.990;21.954;2024-01-10T07:52:45;26.20;2201.60
55269;DHT22;41131;42.990;21.954;2024-01-10T07:55:11;26.20;2201.60
55269;DHT22;41131;42.990;21.954;2024-01-10T07:57:37;26.40;2201.60
55269;DHT22;41131;42.990;21.954;2024-01-10T08:00:06;26.50;2201.60
55269;DHT22;41131;42.990;21.954;2024-01-10T08:02:36;26.50;2201.60
55269;DHT22;41131;42.990;21.954;2024-01-10T08:05:03;26.50;2201.60
55269;DHT22;41131;42.990;21.954;2024-01-10T08:07:34;26.50;2201.60
55269;DHT22;41131;42.990;21.954;2024-01-10T08:10:06;26.50;2201.60
55269;DHT22;41131;42.990;21.954;2024-01-10T08:12:33;51.20;2227.20
55269;DHT22;41131;42.990;21.954;2024-01-10T08:14:59;51.30;2227.20
55269;DHT22;41131;42.990;21.954;2024-01-10T08:17:25;51.30;2227.20
55269;DHT22;41131;42.990;21.954;2024-01-10T08:19:50;51.50;2227.20
55269;DHT22;41131;42.990;21.954;2024-01-10T08:22:17;51.50;2227.20
55269;DHT22;41131;42.990;21.954;2024-01-10T08:24:45;51.50;2227.20
55269;DHT22;41131;42.990;21.954;2024-01-10T08:27:11;51.50;2227.20
55269;DHT22;41131;42.990;21.954;2024-01-10T08:29:37;51.40;2227.20
55269;DHT22;41131;42.990;21.954;2024-01-10T08:32:03;51.50;2227.20
55269;DHT22;41131;42.990;21.954;2024-01-10T08:34:29;51.60;2227.20
55269;DHT22;41131;42.990;21.954;2024-01-10T08:36:55;51.70;2227.20
55269;DHT22;41131;42.990;21.954;2024-01-10T08:39:21;51.70;2227.20
55269;DHT22;41131;42.990;21.954;2024-01-10T08:41:51;51.60;2227.20
55269;DHT22;41131;42.990;21.954;2024-01-10T08:44:18;51.70;2227.20
55269;DHT22;41131;42.990;21.954;2024-01-10T08:46:44;51.80;2227.20
55269;DHT22;41131;42.990;21.954;2024-01-10T08:49:10;51.90;2227.20
55269;DHT22;41131;42.990;21.954;2024-01-10T08:51:35;51.90;2227.20
55269;DHT22;41131;42.990;21.954;2024-01-10T08:54:01;51.90;2227.20
55269;DHT22;41131;42.990;21.954;2024-01-10T08:56:27;51.90;2227.20
55269;DHT22;41131;42.990;21.954;2024-01-10T08:58:53;52.00;2227.20
55269;DHT22;41131;42.990;21.954;2024-01-10T09:01:19;51.80;2227.20
55269;DHT22;41131;42.990;21.954;2024-01-10T09:03:45;52.00;2227.20
55269;DHT22;41131;42.990;21.954;2024-01-10T09:06:11;52.00;2227.20
55269;DHT22;41131;42.990;21.954;2024-01-10T09:08:37;51.90;2227.20
55269;DHT22;41131;42.990;21.954;2024-01-10T09:11:03;52.10;2227.20
55269;DHT22;41131;42.990;21.954;2024-01-10T09:13:29;52.10;2227.20
55269;DHT22;41131;42.990;21.954;2024-01-10T09:15:55;52.00;2201.60
55269;DHT22;41131;42.990;21.954;2024-01-10T09:18:21;52.00;2201.60
55269;DHT22;41131;42.990;21.954;2024-01-10T09:20:47;52.10;2201.60
55269;DHT22;41131;42.990;21.954;2024-01-10T09:55:22;77.40;2099.20
55269;DHT22;41131;42.990;21.954;2024-01-10T09:57:48;77.20;2227.20
55269;DHT22;41131;42.990;21.954;2024-01-10T10:00:15;77.20;2124.80
55269;DHT22;41131;42.990;21.954;2024-01-10T10:02:42;77.20;2150.40
55269;DHT22;41131;42.990;21.954;2024-01-10T10:05:15;77.30;2150.40
55269;DHT22;41131;42.990;21.954;2024-01-10T10:07:49;77.20;2099.20
55269;DHT22;41131;42.990;21.954;2024-01-10T10:10:15;77.20;2150.40
55269;DHT22;41131;42.990;21.954;2024-01-10T10:12:45;77.20;2150.40
55269;DHT22;41131;42.990;21.954;2024-01-10T10:15:13;77.30;2150.40
55269;DHT22;41131;42.990;21.954;2024-01-10T10:17:40;77.20;2150.40
55269;DHT22;41131;42.990;21.954;2024-01-10T10:20:22;77.20;2124.80
55269;DHT22;41131;42.990;21.954;2024-01-10T10:23:04;77.20;2150.40
55269;DHT22;41131;42.990;21.954;2024-01-10T10:25:30;77.20;2124.80
55269;DHT22;41131;42.990;21.954;2024-01-10T10:28:00;77.30;2176.00
55269;DHT22;41131;42.990;21.954;2024-01-10T10:30:30;77.40;2150.40
55269;DHT22;41131;42.990;21.954;2024-01-10T10:32:56;77.50;2124.80
55269;DHT22;41131;42.990;21.954;2024-01-10T10:35:22;77.50;2124.80
55269;DHT22;41131;42.990;21.954;2024-01-10T10:37:50;102.40;2073.60
55269;DHT22;41131;42.990;21.954;2024-01-10T10:40:16;77.60;2227.20
55269;DHT22;41131;42.990;21.954;2024-01-10T10:42:49;77.50;2099.20
55269;DHT22;41131;42.990;21.954;2024-01-10T10:45:18;77.60;2099.20
55269;DHT22;41131;42.990;21.954;2024-01-10T10:55:15;102.60;2048.00
55269;DHT22;41131;42.990;21.954;2024-01-10T10:57:48;102.40;2227.20
55269;DHT22;41131;42.990;21.954;2024-01-10T11:00:16;102.50;2073.60
55269;DHT22;41131;42.990;21.954;2024-01-10T11:02:43;102.60;2099.20
55269;DHT22;41131;42.990;21.954;2024-01-10T11:05:09;102.50;2099.20
55269;DHT22;41131;42.990;21.954;2024-01-10T11:07:43;102.50;2099.20
55269;DHT22;41131;42.990;21.954;2024-01-10T11:10:25;102.50;2073.60
55269;DHT22;41131;42.990;21.954;2024-01-10T11:13:19;102.60;2022.40
55269;DHT22;41131;42.990;21.954;2024-01-10T11:16:19;102.50;1996.80
55269;DHT22;41131;42.990;21.954;2024-01-10T11:19:06;102.60;1996.80
55269;DHT22;41131;42.990;21.954;2024-01-10T11:24:15;102.60;2048.00
55269;DHT22;41131;42.990;21.954;2024-01-10T11:26:41;102.70;2048.00
55269;DHT22;41131;42.990;21.954;2024-01-10T11:29:07;102.60;2022.40
55269;DHT22;41131;42.990;21.954;2024-01-10T11:31:38;102.70;2022.40
55269;DHT22;41131;42.990;21.954;2024-01-10T11:34:04;102.60;1996.80
55269;DHT22;41131;42.990;21.954;2024-01-10T11:36:30;102.70;1996.80
55269;DHT22;41131;42.990;21.954;2024-01-10T11:39:04;102.80;1996.80
55269;DHT22;41131;42.990;21.954;2024-01-10T11:41:33;102.90;1996.80
55269;DHT22;41131;42.990;21.954;2024-01-10T11:49:10;102.80;1971.20
55269;DHT22;41131;42.990;21.954;2024-01-10T11:51:38;102.90;1971.20
55269;DHT22;41131;42.990;21.954;2024-01-10T11:54:04;102.80;1920.00
55269;DHT22;41131;42.990;21.954;2024-01-10T11:56:43;102.80;1945.60
55269;DHT22;41131;42.990;21.954;2024-01-10T11:59:11;103.00;2201.60
55269;DHT22;41131;42.990;21.954;2024-01-10T12:01:38;102.80;2227.20
55269;DHT22;41131;42.990;21.954;2024-01-10T12:04:04;102.70;1996.80
55269;DHT22;41131;42.990;21.954;2024-01-10T12:06:31;102.70;1945.60
55269;DHT22;41131;42.990;21.954;2024-01-10T12:08:57;102.90;2227.20
55269;DHT22;41131;42.990;21.954;2024-01-10T12:11:23;102.80;2227.20
55269;DHT22;41131;42.990;21.954;2024-01-10T12:13:49;102.90;1996.80
55269;DHT22;41131;42.990;21.954;2024-01-10T12:16:15;102.80;1996.80
55269;DHT22;41131;42.990;21.954;2024-01-10T12:18:44;102.80;1971.20
55269;DHT22;41131;42.990;21.954;2024-01-10T12:21:10;102.80;1920.00
55269;DHT22;41131;42.990;21.954;2024-01-10T12:23:38;102.70;1920.00
55269;DHT22;41131;42.990;21.954;2024-01-10T12:26:09;102.70;1945.60
55269;DHT22;41131;42.990;21.954;2024-01-10T12:28:38;102.80;1971.20
55269;DHT22;41131;42.990;21.954;2024-01-10T12:31:05;102.80;1920.00
55269;DHT22;41131;42.990;21.954;2024-01-10T12:33:33;102.80;1945.60
55269;DHT22;41131;42.990;21.954;2024-01-10T12:36:18;102.80;2022.40
55269;DHT22;41131;42.990;21.954;2024-01-10T12:38:45;102.90;2022.40
55269;DHT22;41131;42.990;21.954;2024-01-10T12:41:11;102.90;1996.80
55269;DHT22;41131;42.990;21.954;2024-01-10T12:43:37;102.80;1971.20
55269;DHT22;41131;42.990;21.954;2024-01-10T12:46:07;103.00;1971.20
55269;DHT22;41131;42.990;21.954;2024-01-10T12:48:34;103.00;1971.20
55269;DHT22;41131;42.990;21.954;2024-01-10T12:51:04;103.10;1971.20
55269;DHT22;41131;42.990;21.954;2024-01-10T12:53:41;103.00;1945.60
55269;DHT22;41131;42.990;21.954;2024-01-10T12:56:08;103.10;1971.20
55269;DHT22;41131;42.990;21.954;2024-01-10T12:58:35;103.00;1996.80
55269;DHT22;41131;42.990;21.954;2024-01-10T13:01:05;103.00;1971.20
55269;DHT22;41131;42.990;21.954;2024-01-10T13:03:30;103.10;1920.00
55269;DHT22;41131;42.990;21.954;2024-01-10T13:05:56;103.20;1945.60
55269;DHT22;41131;42.990;21.954;2024-01-10T13:08:22;103.20;1920.00
55269;DHT22;41131;42.990;21.954;2024-01-10T13:10:48;103.20;1920.00
55269;DHT22;41131;42.990;21.954;2024-01-10T13:13:14;103.30;1945.60
55269;DHT22;41131;42.990;21.954;2024-01-10T13:15:41;103.30;1945.60
55269;DHT22;41131;42.990;21.954;2024-01-10T13:18:08;103.30;1945.60
55269;DHT22;41131;42.990;21.954;2024-01-10T13:20:35;103.30;1920.00
55269;DHT22;41131;42.990;21.954;2024-01-10T13:23:02;103.30;1920.00
55269;DHT22;41131;42.990;21.954;2024-01-10T13:25:27;128.00;1920.00
55269;DHT22;41131;42.990;21.954;2024-01-10T13:27:53;103.30;1894.40
55269;DHT22;41131;42.990;21.954;2024-01-10T13:30:19;128.00;1945.60
55269;DHT22;41131;42.990;21.954;2024-01-10T13:32:45;103.30;1868.80
55269;DHT22;41131;42.990;21.954;2024-01-10T13:35:13;103.30;1894.40
55269;DHT22;41131;42.990;21.954;2024-01-10T13:37:40;103.30;1920.00
55269;DHT22;41131;42.990;21.954;2024-01-10T13:40:07;128.00;1945.60
55269;DHT22;41131;42.990;21.954;2024-01-10T13:42:36;128.10;1945.60
55269;DHT22;41131;42.990;21.954;2024-01-10T13:45:05;128.00;1920.00
55269;DHT22;41131;42.990;21.954;2024-01-10T13:47:31;128.20;1920.00
55269;DHT22;41131;42.990;21.954;2024-01-10T13:49:58;128.20;1945.60
55269;DHT22;41131;42.990;21.954;2024-01-10T13:52:24;128.20;1920.00
55269;DHT22;41131;42.990;21.954;2024-01-10T13:54:49;128.00;1894.40
55269;DHT22;41131;42.990;21.954;2024-01-10T13:57:15;128.10;1920.00
55269;DHT22;41131;42.990;21.954;2024-01-10T13:59:41;128.10;1920.00
55269;DHT22;41131;42.990;21.954;2024-01-10T14:02:07;128.10;1945.60
55269;DHT22;41131;42.990;21.954;2024-01-10T14:04:33;128.10;1868.80
55269;DHT22;41131;42.990;21.954;2024-01-10T14:06:59;128.10;1894.40
55269;DHT22;41131;42.990;21.954;2024-01-10T14:09:25;128.20;1868.80
55269;DHT22;41131;42.990;21.954;2024-01-10T14:11:50;128.20;1894.40
55269;DHT22;41131;42.990;21.954;2024-01-10T14:14:16;128.20;1894.40
55269;DHT22;41131;42.990;21.954;2024-01-10T14:16:43;128.10;1894.40
55269;DHT22;41131;42.990;21.954;2024-01-10T14:19:09;128.10;1817.60
55269;DHT22;41131;42.990;21.954;2024-01-10T14:21:35;128.00;1817.60
55269;DHT22;41131;42.990;21.954;2024-01-10T14:24:00;128.00;1843.20
55269;DHT22;41131;42.990;21.954;2024-01-10T14:26:27;128.00;1868.80
55269;DHT22;41131;42.990;21.954;2024-01-10T14:28:53;128.10;1920.00
55269;DHT22;41131;42.990;21.954;2024-01-10T14:31:21;103.30;1945.60
55269;DHT22;41131;42.990;21.954;2024-01-10T14:33:47;103.20;1920.00
55269;DHT22;41131;42.990;21.954;2024-01-10T14:36:13;103.20;1945.60
55269;DHT22;41131;42.990;21.954;2024-01-10T14:38:39;103.10;1945.60
55269;DHT22;41131;42.990;21.954;2024-01-10T14:41:06;103.10;1971.20
55269;DHT22;41131;42.990;21.954;2024-01-10T14:43:33;103.20;1945.60
55269;DHT22;41131;42.990;21.954;2024-01-10T14:45:58;103.20;1945.60
55269;DHT22;41131;42.990;21.954;2024-01-10T14:48:24;103.10;1945.60
55269;DHT22;41131;42.990;21.954;2024-01-10T14:50:50;103.20;1945.60
55269;DHT22;41131;42.990;21.954;2024-01-10T14:53:17;103.20;1945.60
55269;DHT22;41131;42.990;21.954;2024-01-10T14:55:43;103.20;1945.60
55269;DHT22;41131;42.990;21.954;2024-01-10T14:58:08;103.00;1971.20
55269;DHT22;41131;42.990;21.954;2024-01-10T15:00:34;103.00;1971.20
55269;DHT22;41131;42.990;21.954;2024-01-10T15:03:00;103.00;1971.20
55269;DHT22;41131;42.990;21.954;2024-01-10T15:05:26;102.90;2022.40
55269;DHT22;41131;42.990;21.954;2024-01-10T15:07:52;102.80;2022.40
55269;DHT22;41131;42.990;21.954;2024-01-10T15:10:18;102.80;2022.40
55269;DHT22;41131;42.990;21.954;2024-01-10T15:12:44;102.90;2048.00
55269;DHT22;41131;42.990;21.954;2024-01-10T15:15:10;102.90;1996.80
55269;DHT22;41131;42.990;21.954;2024-01-10T15:17:36;102.90;2022.40
55269;DHT22;41131;42.990;21.954;2024-01-10T15:20:02;102.90;2022.40
55269;DHT22;41131;42.990;21.954;2024-01-10T15:22:29;102.90;1971.20
55269;DHT22;41131;42.990;21.954;2024-01-10T15:24:54;102.90;1996.80
55269;DHT22;41131;42.990;21.954;2024-01-10T15:27:20;103.00;2022.40
55269;DHT22;41131;42.990;21.954;2024-01-10T15:29:46;102.90;1996.80
55269;DHT22;41131;42.990;21.954;2024-01-10T15:32:12;102.90;1996.80
55269;DHT22;41131;42.990;21.954;2024-01-10T15:34:38;102.90;2022.40
55269;DHT22;41131;42.990;21.954;2024-01-10T15:37:04;102.80;2022.40
55269;DHT22;41131;42.990;21.954;2024-01-10T15:39:30;102.90;2022.40
55269;DHT22;41131;42.990;21.954;2024-01-10T15:41:55;102.80;2022.40
55269;DHT22;41131;42.990;21.954;2024-01-10T15:44:21;102.80;2022.40
55269;DHT22;41131;42.990;21.954;2024-01-10T15:46:47;102.80;2022.40
55269;DHT22;41131;42.990;21.954;2024-01-10T15:49:13;102.80;2022.40
55269;DHT22;41131;42.990;21.954;2024-01-10T15:51:39;102.80;2022.40
55269;DHT22;41131;42.990;21.954;2024-01-10T15:54:05;102.80;2048.00
55269;DHT22;41131;42.990;21.954;2024-01-10T15:56:31;102.80;2022.40
55269;DHT22;41131;42.990;21.954;2024-01-10T15:58:58;102.80;2022.40
55269;DHT22;41131;42.990;21.954;2024-01-10T16:01:24;102.80;2048.00
55269;DHT22;41131;42.990;21.954;2024-01-10T16:03:50;102.80;2048.00
55269;DHT22;41131;42.990;21.954;2024-01-10T16:06:17;102.70;2048.00
55269;DHT22;41131;42.990;21.954;2024-01-10T16:08:43;102.70;2048.00
55269;DHT22;41131;42.990;21.954;2024-01-10T16:11:09;102.70;2048.00
55269;DHT22;41131;42.990;21.954;2024-01-10T16:13:35;102.60;2048.00
55269;DHT22;41131;42.990;21.954;2024-01-10T16:16:01;102.60;2048.00
55269;DHT22;41131;42.990;21.954;2024-01-10T16:18:30;102.60;2073.60
55269;DHT22;41131;42.990;21.954;2024-01-10T16:20:56;102.50;2099.20
55269;DHT22;41131;42.990;21.954;2024-01-10T16:23:21;102.50;2099.20
55269;DHT22;41131;42.990;21.954;2024-01-10T16:25:47;102.50;2099.20
55269;DHT22;41131;42.990;21.954;2024-01-10T16:28:14;102.40;2124.80